sensor_id;sensor_type;location;lat;lon;timestamp;pressure;altitude;pressure_sealevel;temperature;humidity
19827;BME280;10074;52.018;4.726;2023-05-01T00:04:24;46191.19;;;-144.79;100.00
19827;BME280;10074;52.018;4.726;2023-05-01T00:09:28;46191.19;;;-144.79;100.00
19827;BME280;10074;52.018;4.726;2023-05-01T00:14:29;46197.19;;;-144.79;100.00
19827;BME280;10074;52.018;4.726;2023-05-01T00:19:29;46191.19;;;-144.79;100.00
19827;BME280;10074;52.018;4.726;2023-05-01T00:24:29;46191.19;;;-144.79;100.00
19827;BME280;10074;52.018;4.726;2023-05-01T00:29:30;46183.16;;;-144.79;100.00
19827;BME280;10074;52.018;4.726;2023-05-01T00:34:30;46195.19;;;-144.79;100.00
19827;BME280;10074;52.018;4.726;2023-05-01T00:39:30;46199.19;;;-144.79;100.00
19827;BME280;10074;52.018;4.726;2023-05-01T00:44:30;46199.19;;;-144.79;100.00
19827;BME280;10074;52.018;4.726;2023-05-01T00:49:31;46183.16;;;-144.79;100.00
19827;BME280;10074;52.018;4.726;2023-05-01T00:54:32;46185.16;;;-144.79;100.00
19827;BME280;10074;52.018;4.726;2023-05-01T00:59:32;46199.19;;;-144.79;100.00
19827;BME280;10074;52.018;4.726;2023-05-01T01:04:33;46199.19;;;-144.79;100.00
19827;BME280;10074;52.018;4.726;2023-05-01T01:09:44;46195.19;;;-144.79;100.00
19827;BME280;10074;52.018;4.726;2023-05-01T01:35:41;46207.22;;;-144.79;100.00
19827;BME280;10074;52.018;4.726;2023-05-01T01:41:09;46203.22;;;-144.79;100.00
19827;BME280;10074;52.018;4.726;2023-05-01T01:46:11;46183.16;;;-144.79;100.00
19827;BME280;10074;52.018;4.726;2023-05-01T01:51:13;46183.16;;;-144.79;100.00
19827;BME280;10074;52.018;4.726;2023-05-01T01:56:16;46177.16;;;-144.79;100.00
19827;BME280;10074;52.018;4.726;2023-05-01T02:01:18;46189.19;;;-144.79;100.00
19827;BME280;10074;52.018;4.726;2023-05-01T02:06:20;46181.16;;;-144.79;100.00
19827;BME280;10074;52.018;4.726;2023-05-01T02:11:23;46201.22;;;-144.79;100.00
19827;BME280;10074;52.018;4.726;2023-05-01T02:16:26;46193.19;;;-144.79;100.00
19827;BME280;10074;52.018;4.726;2023-05-01T02:21:28;46183.16;;;-144.79;100.00
19827;BME280;10074;52.018;4.726;2023-05-01T02:26:30;46199.19;;;-144.79;100.00
19827;BME280;10074;52.018;4.726;2023-05-01T02:31:35;46177.16;;;-144.79;100.00
19827;BME280;10074;52.018;4.726;2023-05-01T02:36:35;46199.19;;;-144.79;100.00
19827;BME280;10074;52.018;4.726;2023-05-01T02:41:37;46199.19;;;-144.79;100.00
19827;BME280;10074;52.018;4.726;2023-05-01T02:46:41;46195.19;;;-144.79;100.00
19827;BME280;10074;52.018;4.726;2023-05-01T02:51:43;46189.19;;;-144.79;100.00
19827;BME280;10074;52.018;4.726;2023-05-01T02:56:45;46195.19;;;-144.79;100.00
19827;BME280;10074;52.018;4.726;2023-05-01T03:01:45;46181.16;;;-144.79;100.00
19827;BME280;10074;52.018;4.726;2023-05-01T03:06:45;46189.19;;;-144.79;100.00
19827;BME280;10074;52.018;4.726;2023-05-01T03:11:46;46167.13;;;-144.79;100.00
19827;BME280;10074;52.018;4.726;2023-05-01T03:16:46;46197.19;;;-144.79;100.00
19827;BME280;10074;52.018;4.726;2023-05-01T03:21:46;46195.19;;;-144.79;100.00
19827;BME280;10074;52.018;4.726;2023-05-01T03:26:46;46183.16;;;-144.79;100.00
19827;BME280;10074;52.018;4.726;2023-05-01T03:31:47;46191.19;;;-144.79;100.00
19827;BME280;10074;52.018;4.726;2023-05-01T03:36:47;46205.22;;;-144.79;100.00
19827;BME280;10074;52.018;4.726;2023-05-01T03:41:48;46199.19;;;-144.79;100.00
19827;BME280;10074;52.018;4.726;2023-05-01T03:46:48;46191.19;;;-144.79;100.00
19827;BME280;10074;52.018;4.726;2023-05-01T03:51:48;46185.16;;;-144.79;100.00
19827;BME280;10074;52.018;4.726;2023-05-01T03:56:49;46189.19;;;-144.79;100.00
19827;BME280;10074;52.018;4.726;2023-05-01T04:01:49;46187.19;;;-144.79;100.00
19827;BME280;10074;52.018;4.726;2023-05-01T04:06:49;46193.19;;;-144.79;100.00
19827;BME280;10074;52.018;4.726;2023-05-01T04:11:49;46197.19;;;-144.79;100.00
19827;BME280;10074;52.018;4.726;2023-05-01T04:16:50;46195.19;;;-144.79;100.00
19827;BME280;10074;52.018;4.726;2023-05-01T04:21:50;46193.19;;;-144.79;100.00
19827;BME280;10074;52.018;4.726;2023-05-01T04:26:51;46183.16;;;-144.79;100.00
19827;BME280;10074;52.018;4.726;2023-05-01T04:31:51;46191.19;;;-144.79;100.00
19827;BME280;10074;52.018;4.726;2023-05-01T04:36:51;46205.22;;;-144.79;100.00
19827;BME280;10074;52.018;4.726;2023-05-01T04:41:52;46189.19;;;-144.79;100.00
19827;BME280;10074;52.018;4.726;2023-05-01T04:46:52;46187.19;;;-144.79;100.00
19827;BME280;10074;52.018;4.726;2023-05-01T04:51:52;46185.16;;;-144.79;100.00
19827;BME280;10074;52.018;4.726;2023-05-01T04:56:53;46191.19;;;-144.79;100.00
19827;BME280;10074;52.018;4.726;2023-05-01T05:01:53;46191.19;;;-144.79;100.00
19827;BME280;10074;52.018;4.726;2023-05-01T05:06:53;46203.22;;;-144.79;100.00
19827;BME280;10074;52.018;4.726;2023-05-01T05:11:54;46183.16;;;-144.79;100.00
19827;BME280;10074;52.018;4.726;2023-05-01T05:16:54;46191.19;;;-144.79;100.00
19827;BME280;10074;52.018;4.726;2023-05-01T05:21:54;46195.19;;;-144.79;100.00
19827;BME280;10074;52.018;4.726;2023-05-01T05:26:54;46187.19;;;-144.79;100.00
19827;BME280;10074;52.018;4.726;2023-05-01T05:31:55;46185.16;;;-144.79;100.00
19827;BME280;10074;52.018;4.726;2023-05-01T05:36:56;46189.19;;;-144.79;100.00
19827;BME280;10074;52.018;4.726;2023-05-01T05:41:57;46203.22;;;-144.79;100.00
19827;BME280;10074;52.018;4.726;2023-05-01T05:46:58;46191.19;;;-144.79;100.00
19827;BME280;10074;52.018;4.726;2023-05-01T05:51:58;46189.19;;;-144.79;100.00
19827;BME280;10074;52.018;4.726;2023-05-01T05:56:58;46193.19;;;-144.79;100.00
19827;BME280;10074;52.018;4.726;2023-05-01T06:01:58;46201.22;;;-144.79;100.00
19827;BME280;10074;52.018;4.726;2023-05-01T06:06:59;46183.16;;;-144.79;100.00
19827;BME280;10074;52.018;4.726;2023-05-01T06:11:59;46211.22;;;-144.79;100.00
19827;BME280;10074;52.018;4.726;2023-05-01T06:17:01;46191.19;;;-144.79;100.00
19827;BME280;10074;52.018;4.726;2023-05-01T06:22:01;46191.19;;;-144.79;100.00
19827;BME280;10074;52.018;4.726;2023-05-01T06:27:01;46189.19;;;-144.79;100.00
19827;BME280;10074;52.018;4.726;2023-05-01T06:32:02;46191.19;;;-144.79;100.00
19827;BME280;10074;52.018;4.726;2023-05-01T06:37:03;46181.16;;;-144.79;100.00
19827;BME280;10074;52.018;4.726;2023-05-01T06:42:04;46205.22;;;-144.79;100.00
19827;BME280;10074;52.018;4.726;2023-05-01T06:47:05;46189.19;;;-144.79;100.00
19827;BME280;10074;52.018;4.726;2023-05-01T06:52:06;46203.22;;;-144.79;100.00
19827;BME280;10074;52.018;4.726;2023-05-01T06:57:06;46195.19;;;-144.79;100.00
19827;BME280;10074;52.018;4.726;2023-05-01T07:02:06;46191.19;;;-144.79;100.00
19827;BME280;10074;52.018;4.726;2023-05-01T07:07:07;46199.19;;;-144.79;100.00
19827;BME280;10074;52.018;4.726;2023-05-01T07:12:07;46209.22;;;-144.79;100.00
19827;BME280;10074;52.018;4.726;2023-05-01T07:17:07;46211.22;;;-144.79;100.00
19827;BME280;10074;52.018;4.726;2023-05-01T07:22:08;46179.16;;;-144.79;100.00
19827;BME280;10074;52.018;4.726;2023-05-01T07:27:08;46193.19;;;-144.79;100.00
19827;BME280;10074;52.018;4.726;2023-05-01T07:32:09;46177.16;;;-144.79;100.00
19827;BME280;10074;52.018;4.726;2023-05-01T07:37:09;46185.16;;;-144.79;100.00
19827;BME280;10074;52.018;4.726;2023-05-01T07:42:09;46195.19;;;-144.79;100.00
19827;BME280;10074;52.018;4.726;2023-05-01T07:47:09;46203.22;;;-144.79;100.00
19827;BME280;10074;52.018;4.726;2023-05-01T07:52:10;46177.16;;;-144.79;100.00
19827;BME280;10074;52.018;4.726;2023-05-01T07:57:10;46187.19;;;-144.79;100.00
19827;BME280;10074;52.018;4.726;2023-05-01T08:02:10;46203.22;;;-144.79;100.00
19827;BME280;10074;52.018;4.726;2023-05-01T08:07:13;46191.19;;;-144.79;100.00
19827;BME280;10074;52.018;4.726;2023-05-01T08:12:13;46203.22;;;-144.79;100.00
19827;BME280;10074;52.018;4.726;2023-05-01T08:17:14;46197.19;;;-144.79;100.00
19827;BME280;10074;52.018;4.726;2023-05-01T08:22:14;46191.19;;;-144.79;100.00
19827;BME280;10074;52.018;4.726;2023-05-01T08:27:14;46201.22;;;-144.79;100.00
19827;BME280;10074;52.018;4.726;2023-05-01T08:32:17;46203.22;;;-144.79;100.00
19827;BME280;10074;52.018;4.726;2023-05-01T08:37:17;46191.19;;;-144.79;100.00
19827;BME280;10074;52.018;4.726;2023-05-01T08:42:18;46201.22;;;-144.79;100.00
19827;BME280;10074;52.018;4.726;2023-05-01T08:47:19;46199.19;;;-144.79;100.00
19827;BME280;10074;52.018;4.726;2023-05-01T08:52:21;46185.16;;;-144.79;100.00
19827;BME280;10074;52.018;4.726;2023-05-01T08:57:22;46191.19;;;-144.79;100.00
19827;BME280;10074;52.018;4.726;2023-05-01T09:02:23;46193.19;;;-144.79;100.00
19827;BME280;10074;52.018;4.726;2023-05-01T09:07:23;46199.19;;;-144.79;100.00
19827;BME280;10074;52.018;4.726;2023-05-01T09:12:25;46201.22;;;-144.79;100.00
19827;BME280;10074;52.018;4.726;2023-05-01T09:17:26;46171.13;;;-144.79;100.00
19827;BME280;10074;52.018;4.726;2023-05-01T09:22:26;46177.16;;;-144.79;100.00
19827;BME280;10074;52.018;4.726;2023-05-01T09:27:27;46187.19;;;-144.79;100.00
19827;BME280;10074;52.018;4.726;2023-05-01T09:32:27;46181.16;;;-144.79;100.00
19827;BME280;10074;52.018;4.726;2023-05-01T09:37:30;46199.19;;;-144.79;100.00
19827;BME280;10074;52.018;4.726;2023-05-01T09:42:32;46199.19;;;-144.79;100.00
19827;BME280;10074;52.018;4.726;2023-05-01T09:47:33;46191.19;;;-144.79;100.00
19827;BME280;10074;52.018;4.726;2023-05-01T09:52:33;46191.19;;;-144.79;100.00
19827;BME280;10074;52.018;4.726;2023-05-01T09:57:34;46203.22;;;-144.79;100.00
19827;BME280;10074;52.018;4.726;2023-05-01T10:02:38;46189.19;;;-144.79;100.00
19827;BME280;10074;52.018;4.726;2023-05-01T10:07:39;46191.19;;;-144.79;100.00
19827;BME280;10074;52.018;4.726;2023-05-01T10:12:40;46189.19;;;-144.79;100.00
19827;BME280;10074;52.018;4.726;2023-05-01T10:17:42;46193.19;;;-144.79;100.00
19827;BME280;10074;52.018;4.726;2023-05-01T10:22:42;46195.19;;;-144.79;100.00
19827;BME280;10074;52.018;4.726;2023-05-01T10:27:43;46187.19;;;-144.79;100.00
19827;BME280;10074;52.018;4.726;2023-05-01T10:32:44;46173.13;;;-144.79;100.00
19827;BME280;10074;52.018;4.726;2023-05-01T10:38:00;46219.25;;;-144.79;100.00
19827;BME280;10074;52.018;4.726;2023-05-01T10:43:23;46205.22;;;-144.79;100.00
19827;BME280;10074;52.018;4.726;2023-05-01T10:53:38;46203.22;;;-144.79;100.00
19827;BME280;10074;52.018;4.726;2023-05-01T11:03:39;46217.25;;;-144.79;100.00
19827;BME280;10074;52.018;4.726;2023-05-01T11:08:39;46229.28;;;-144.79;100.00
19827;BME280;10074;52.018;4.726;2023-05-01T11:14:01;46213.25;;;-144.79;100.00
19827;BME280;10074;52.018;4.726;2023-05-01T11:19:03;46215.25;;;-144.79;100.00
19827;BME280;10074;52.018;4.726;2023-05-01T11:24:06;46217.25;;;-144.79;100.00
19827;BME280;10074;52.018;4.726;2023-05-01T11:29:09;46213.25;;;-144.79;100.00
19827;BME280;10074;52.018;4.726;2023-05-01T11:34:09;46225.28;;;-144.79;100.00
19827;BME280;10074;52.018;4.726;2023-05-01T11:39:13;46223.25;;;-144.79;100.00
19827;BME280;10074;52.018;4.726;2023-05-01T11:44:16;46229.28;;;-144.79;100.00
19827;BME280;10074;52.018;4.726;2023-05-01T11:49:25;46227.28;;;-144.79;100.00
19827;BME280;10074;52.018;4.726;2023-05-01T11:54:26;46223.25;;;-144.79;100.00
19827;BME280;10074;52.018;4.726;2023-05-01T11:59:26;46231.28;;;-144.79;100.00
19827;BME280;10074;52.018;4.726;2023-05-01T12:04:27;46235.28;;;-144.79;100.00
19827;BME280;10074;52.018;4.726;2023-05-01T12:09:27;46237.31;;;-144.79;100.00
19827;BME280;10074;52.018;4.726;2023-05-01T12:14:28;46229.28;;;-144.79;100.00
19827;BME280;10074;52.018;4.726;2023-05-01T12:19:29;46227.28;;;-144.79;100.00
19827;BME280;10074;52.018;4.726;2023-05-01T12:24:29;46239.31;;;-144.79;100.00
19827;BME280;10074;52.018;4.726;2023-05-01T12:29:39;46227.28;;;-144.79;100.00
19827;BME280;10074;52.018;4.726;2023-05-01T12:34:47;46233.28;;;-144.79;100.00
19827;BME280;10074;52.018;4.726;2023-05-01T12:39:47;46237.31;;;-144.79;100.00
19827;BME280;10074;52.018;4.726;2023-05-01T12:44:47;46231.28;;;-144.79;100.00
19827;BME280;10074;52.018;4.726;2023-05-01T12:49:48;46223.25;;;-144.79;100.00
19827;BME280;10074;52.018;4.726;2023-05-01T12:54:48;46221.25;;;-144.79;100.00
19827;BME280;10074;52.018;4.726;2023-05-01T12:59:57;46225.28;;;-144.79;100.00
19827;BME280;10074;52.018;4.726;2023-05-01T13:05:09;46227.28;;;-144.79;100.00
19827;BME280;10074;52.018;4.726;2023-05-01T13:10:09;46221.25;;;-144.79;100.00
19827;BME280;10074;52.018;4.726;2023-05-01T13:15:19;46225.28;;;-144.79;100.00
19827;BME280;10074;52.018;4.726;2023-05-01T13:20:25;46221.25;;;-144.79;100.00
19827;BME280;10074;52.018;4.726;2023-05-01T13:25:26;46227.28;;;-144.79;100.00
19827;BME280;10074;52.018;4.726;2023-05-01T13:30:31;46221.25;;;-144.79;100.00
19827;BME280;10074;52.018;4.726;2023-05-01T13:35:32;46219.25;;;-144.79;100.00
19827;BME280;10074;52.018;4.726;2023-05-01T13:40:33;46235.28;;;-144.79;100.00
19827;BME280;10074;52.018;4.726;2023-05-01T13:45:33;46219.25;;;-144.79;100.00
19827;BME280;10074;52.018;4.726;2023-05-01T13:50:33;46235.28;;;-144.79;100.00
19827;BME280;10074;52.018;4.726;2023-05-01T13:55:34;46215.25;;;-144.79;100.00
19827;BME280;10074;52.018;4.726;2023-05-01T14:00:34;46227.28;;;-144.79;100.00
19827;BME280;10074;52.018;4.726;2023-05-01T14:05:35;46227.28;;;-144.79;100.00
19827;BME280;10074;52.018;4.726;2023-05-01T14:10:36;46227.28;;;-144.79;100.00
19827;BME280;10074;52.018;4.726;2023-05-01T14:15:38;46223.25;;;-144.79;100.00
19827;BME280;10074;52.018;4.726;2023-05-01T14:20:45;46227.28;;;-144.79;100.00
19827;BME280;10074;52.018;4.726;2023-05-01T14:25:47;46225.28;;;-144.79;100.00
19827;BME280;10074;52.018;4.726;2023-05-01T14:30:48;46213.25;;;-144.79;100.00
19827;BME280;10074;52.018;4.726;2023-05-01T14:35:51;46219.25;;;-144.79;100.00
19827;BME280;10074;52.018;4.726;2023-05-01T14:40:52;46223.25;;;-144.79;100.00
19827;BME280;10074;52.018;4.726;2023-05-01T14:45:53;46223.25;;;-144.79;100.00
19827;BME280;10074;52.018;4.726;2023-05-01T14:50:54;46223.25;;;-144.79;100.00
19827;BME280;10074;52.018;4.726;2023-05-01T14:55:54;46225.28;;;-144.79;100.00
19827;BME280;10074;52.018;4.726;2023-05-01T15:00:54;46233.28;;;-144.79;100.00
19827;BME280;10074;52.018;4.726;2023-05-01T15:05:55;46223.25;;;-144.79;100.00
19827;BME280;10074;52.018;4.726;2023-05-01T15:10:56;46221.25;;;-144.79;100.00
19827;BME280;10074;52.018;4.726;2023-05-01T15:15:56;46209.22;;;-144.79;100.00
19827;BME280;10074;52.018;4.726;2023-05-01T15:20:56;46215.25;;;-144.79;100.00
19827;BME280;10074;52.018;4.726;2023-05-01T15:25:57;46219.25;;;-144.79;100.00
19827;BME280;10074;52.018;4.726;2023-05-01T15:30:57;46203.22;;;-144.79;100.00
19827;BME280;10074;52.018;4.726;2023-05-01T15:35:58;46213.25;;;-144.79;100.00
19827;BME280;10074;52.018;4.726;2023-05-01T15:40:59;46221.25;;;-144.79;100.00
19827;BME280;10074;52.018;4.726;2023-05-01T15:45:59;46215.25;;;-144.79;100.00
19827;BME280;10074;52.018;4.726;2023-05-01T15:51:00;46215.25;;;-144.79;100.00
19827;BME280;10074;52.018;4.726;2023-05-01T15:56:00;46221.25;;;-144.79;100.00
19827;BME280;10074;52.018;4.726;2023-05-01T16:01:01;46207.22;;;-144.79;100.00
19827;BME280;10074;52.018;4.726;2023-05-01T16:06:02;46217.25;;;-144.79;100.00
19827;BME280;10074;52.018;4.726;2023-05-01T16:11:02;46215.25;;;-144.79;100.00
19827;BME280;10074;52.018;4.726;2023-05-01T16:16:06;46219.25;;;-144.79;100.00
19827;BME280;10074;52.018;4.726;2023-05-01T16:21:10;46225.28;;;-144.79;100.00
19827;BME280;10074;52.018;4.726;2023-05-01T16:26:17;46213.25;;;-144.79;100.00
19827;BME280;10074;52.018;4.726;2023-05-01T16:31:18;46223.25;;;-144.79;100.00
19827;BME280;10074;52.018;4.726;2023-05-01T16:36:19;46223.25;;;-144.79;100.00
19827;BME280;10074;52.018;4.726;2023-05-01T16:41:20;46221.25;;;-144.79;100.00
19827;BME280;10074;52.018;4.726;2023-05-01T16:46:20;46223.25;;;-144.79;100.00
19827;BME280;10074;52.018;4.726;2023-05-01T16:51:21;46211.22;;;-144.79;100.00
19827;BME280;10074;52.018;4.726;2023-05-01T16:56:21;46229.28;;;-144.79;100.00
19827;BME280;10074;52.018;4.726;2023-05-01T17:01:22;46219.25;;;-144.79;100.00
19827;BME280;10074;52.018;4.726;2023-05-01T17:06:22;46223.25;;;-144.79;100.00
19827;BME280;10074;52.018;4.726;2023-05-01T17:11:22;46223.25;;;-144.79;100.00
19827;BME280;10074;52.018;4.726;2023-05-01T17:16:23;46223.25;;;-144.79;100.00
19827;BME280;10074;52.018;4.726;2023-05-01T17:21:25;46229.28;;;-144.79;100.00
19827;BME280;10074;52.018;4.726;2023-05-01T17:26:26;46219.25;;;-144.79;100.00
19827;BME280;10074;52.018;4.726;2023-05-01T17:31:27;46229.28;;;-144.79;100.00
19827;BME280;10074;52.018;4.726;2023-05-01T17:36:27;46221.25;;;-144.79;100.00
19827;BME280;10074;52.018;4.726;2023-05-01T17:41:28;46217.25;;;-144.79;100.00
19827;BME280;10074;52.018;4.726;2023-05-01T17:46:29;46225.28;;;-144.79;100.00
19827;BME280;10074;52.018;4.726;2023-05-01T17:51:29;46213.25;;;-144.79;100.00
19827;BME280;10074;52.018;4.726;2023-05-01T17:56:29;46223.25;;;-144.79;100.00
19827;BME280;10074;52.018;4.726;2023-05-01T18:01:30;46225.28;;;-144.79;100.00
19827;BME280;10074;52.018;4.726;2023-05-01T18:06:30;46215.25;;;-144.79;100.00
19827;BME280;10074;52.018;4.726;2023-05-01T18:11:30;46223.25;;;-144.79;100.00
19827;BME280;10074;52.018;4.726;2023-05-01T18:16:31;46225.28;;;-144.79;100.00
19827;BME280;10074;52.018;4.726;2023-05-01T18:21:31;46221.25;;;-144.79;100.00
19827;BME280;10074;52.018;4.726;2023-05-01T18:26:31;46237.31;;;-144.79;100.00
19827;BME280;10074;52.018;4.726;2023-05-01T18:31:32;46223.25;;;-144.79;100.00
19827;BME280;10074;52.018;4.726;2023-05-01T18:36:33;46227.28;;;-144.79;100.00
19827;BME280;10074;52.018;4.726;2023-05-01T18:41:35;46231.28;;;-144.79;100.00
19827;BME280;10074;52.018;4.726;2023-05-01T18:46:35;46239.31;;;-144.79;100.00
19827;BME280;10074;52.018;4.726;2023-05-01T18:51:36;46231.28;;;-144.79;100.00
19827;BME280;10074;52.018;4.726;2023-05-01T18:56:36;46235.28;;;-144.79;100.00
19827;BME280;10074;52.018;4.726;2023-05-01T19:01:36;46219.25;;;-144.79;100.00
19827;BME280;10074;52.018;4.726;2023-05-01T19:06:37;46235.28;;;-144.79;100.00
19827;BME280;10074;52.018;4.726;2023-05-01T19:11:39;46229.28;;;-144.79;100.00
19827;BME280;10074;52.018;4.726;2023-05-01T19:16:39;46231.28;;;-144.79;100.00
19827;BME280;10074;52.018;4.726;2023-05-01T19:21:40;46223.25;;;-144.79;100.00
19827;BME280;10074;52.018;4.726;2023-05-01T19:26:40;46239.31;;;-144.79;100.00
19827;BME280;10074;52.018;4.726;2023-05-01T19:31:40;46231.28;;;-144.79;100.00
19827;BME280;10074;52.018;4.726;2023-05-01T19:36:41;46225.28;;;-144.79;100.00
19827;BME280;10074;52.018;4.726;2023-05-01T19:41:41;46241.31;;;-144.79;100.00
19827;BME280;10074;52.018;4.726;2023-05-01T19:46:41;46235.28;;;-144.79;100.00
19827;BME280;10074;52.018;4.726;2023-05-01T19:51:42;46243.31;;;-144.79;100.00
19827;BME280;10074;52.018;4.726;2023-05-01T19:56:43;46249.34;;;-144.79;100.00
19827;BME280;10074;52.018;4.726;2023-05-01T20:01:45;46241.31;;;-144.79;100.00
19827;BME280;10074;52.018;4.726;2023-05-01T20:06:46;46255.34;;;-144.79;100.00
19827;BME280;10074;52.018;4.726;2023-05-01T20:11:46;46235.28;;;-144.79;100.00
19827;BME280;10074;52.018;4.726;2023-05-01T20:16:46;46231.28;;;-144.79;100.00
19827;BME280;10074;52.018;4.726;2023-05-01T20:21:48;46243.31;;;-144.79;100.00
19827;BME280;10074;52.018;4.726;2023-05-01T20:26:48;46241.31;;;-144.79;100.00
19827;BME280;10074;52.018;4.726;2023-05-01T20:31:49;46249.34;;;-144.79;100.00
19827;BME280;10074;52.018;4.726;2023-05-01T20:36:50;46253.34;;;-144.79;100.00
19827;BME280;10074;52.018;4.726;2023-05-01T20:41:51;46247.31;;;-144.79;100.00
19827;BME280;10074;52.018;4.726;2023-05-01T20:46:51;46249.34;;;-144.79;100.00
19827;BME280;10074;52.018;4.726;2023-05-01T20:51:52;46245.31;;;-144.79;100.00
19827;BME280;10074;52.018;4.726;2023-05-01T20:56:52;46245.31;;;-144.79;100.00
19827;BME280;10074;52.018;4.726;2023-05-01T21:01:52;46243.31;;;-144.79;100.00
19827;BME280;10074;52.018;4.726;2023-05-01T21:06:52;46243.31;;;-144.79;100.00
19827;BME280;10074;52.018;4.726;2023-05-01T21:11:53;46239.31;;;-144.79;100.00
19827;BME280;10074;52.018;4.726;2023-05-01T21:16:53;46243.31;;;-144.79;100.00
19827;BME280;10074;52.018;4.726;2023-05-01T21:21:54;46251.34;;;-144.79;100.00
19827;BME280;10074;52.018;4.726;2023-05-01T21:26:54;46239.31;;;-144.79;100.00
19827;BME280;10074;52.018;4.726;2023-05-01T21:31:54;46249.34;;;-144.79;100.00
19827;BME280;10074;52.018;4.726;2023-05-01T21:36:55;46255.34;;;-144.79;100.00
19827;BME280;10074;52.018;4.726;2023-05-01T21:41:55;46243.31;;;-144.79;100.00
19827;BME280;10074;52.018;4.726;2023-05-01T21:46:56;46247.31;;;-144.79;100.00
19827;BME280;10074;52.018;4.726;2023-05-01T21:51:59;46251.34;;;-144.79;100.00
19827;BME280;10074;52.018;4.726;2023-05-01T21:57:00;46243.31;;;-144.79;100.00
19827;BME280;10074;52.018;4.726;2023-05-01T22:02:09;46245.31;;;-144.79;100.00
19827;BME280;10074;52.018;4.726;2023-05-01T22:07:09;46239.31;;;-144.79;100.00
19827;BME280;10074;52.018;4.726;2023-05-01T22:12:10;46239.31;;;-144.79;100.00
19827;BME280;10074;52.018;4.726;2023-05-01T22:17:10;46247.31;;;-144.79;100.00
19827;BME280;10074;52.018;4.726;2023-05-01T22:22:10;46239.31;;;-144.79;100.00
19827;BME280;10074;52.018;4.726;2023-05-01T22:27:11;46239.31;;;-144.79;100.00
19827;BME280;10074;52.018;4.726;2023-05-01T22:32:11;46243.31;;;-144.79;100.00
19827;BME280;10074;52.018;4.726;2023-05-01T22:37:11;46245.31;;;-144.79;100.00
19827;BME280;10074;52.018;4.726;2023-05-01T22:42:12;46243.31;;;-144.79;100.00
19827;BME280;10074;52.018;4.726;2023-05-01T22:47:12;46251.34;;;-144.79;100.00
19827;BME280;10074;52.018;4.726;2023-05-01T22:52:12;46251.34;;;-144.79;100.00
19827;BME280;10074;52.018;4.726;2023-05-01T22:57:12;46259.34;;;-144.79;100.00
19827;BME280;10074;52.018;4.726;2023-05-01T23:02:13;46249.34;;;-144.79;100.00
19827;BME280;10074;52.018;4.726;2023-05-01T23:07:16;46247.31;;;-144.79;100.00
19827;BME280;10074;52.018;4.726;2023-05-01T23:12:18;46247.31;;;-144.79;100.00
19827;BME280;10074;52.018;4.726;2023-05-01T23:17:24;46253.34;;;-144.79;100.00
19827;BME280;10074;52.018;4.726;2023-05-01T23:22:25;46245.31;;;-144.79;100.00
19827;BME280;10074;52.018;4.726;2023-05-01T23:27:32;46251.34;;;-144.79;100.00
19827;BME280;10074;52.018;4.726;2023-05-01T23:32:33;46247.31;;;-144.79;100.00
19827;BME280;10074;52.018;4.726;2023-05-01T23:37:33;46251.34;;;-144.79;100.00
19827;BME280;10074;52.018;4.726;2023-05-01T23:42:34;46241.31;;;-144.79;100.00
19827;BME280;10074;52.018;4.726;2023-05-01T23:47:36;46249.34;;;-144.79;100.00
19827;BME280;10074;52.018;4.726;2023-05-01T23:52:37;46253.34;;;-144.79;100.00
19827;BME280;10074;52.018;4.726;2023-05-01T23:57:38;46247.31;;;-144.79;100.00
